createdAt,value
2023-04-26T00:01:08.840Z,1.48
2023-04-26T00:03:36.349Z,1.50
2023-04-26T00:06:08.769Z,1.60
2023-04-26T00:11:06.063Z,1.65
2023-04-26T00:13:33.512Z,1.92
2023-04-26T00:16:00.879Z,1.77
2023-04-26T00:18:28.424Z,1.55
2023-04-26T00:20:55.887Z,1.95
2023-04-26T00:23:23.317Z,1.73
2023-04-26T00:25:50.944Z,1.45
2023-04-26T00:28:18.290Z,1.50
2023-04-26T00:30:48.842Z,1.77
2023-04-26T00:33:16.139Z,1.73
2023-04-26T00:35:43.504Z,1.67
2023-04-26T00:38:10.859Z,1.90
2023-04-26T00:40:38.210Z,1.67
2023-04-26T00:43:06.620Z,2.00
2023-04-26T00:45:35.472Z,2.10
2023-04-26T00:48:03.658Z,1.87
2023-04-26T00:50:32.557Z,1.42
2023-04-26T00:53:00.832Z,1.90
2023-04-26T00:55:28.413Z,1.47
2023-04-26T00:57:55.839Z,1.63
2023-04-26T01:00:23.267Z,1.67
2023-04-26T01:02:51.325Z,1.87
2023-04-26T01:05:19.045Z,2.57
2023-04-26T01:07:46.877Z,2.30
2023-04-26T01:10:14.228Z,1.80
2023-04-26T01:12:41.543Z,1.73
2023-04-26T01:15:11.409Z,1.70
2023-04-26T01:17:38.865Z,1.90
2023-04-26T01:20:09.914Z,1.87
2023-04-26T01:22:37.252Z,2.80
2023-04-26T01:25:07.773Z,1.80
2023-04-26T01:27:36.166Z,1.80
2023-04-26T01:30:03.837Z,2.13
2023-04-26T01:32:31.662Z,1.80
2023-04-26T01:35:00.611Z,1.90
2023-04-26T01:37:27.937Z,2.50
2023-04-26T01:39:55.270Z,1.70
2023-04-26T01:42:22.820Z,2.13
2023-04-26T01:44:50.176Z,2.60
2023-04-26T01:47:17.495Z,2.03
2023-04-26T01:49:45.956Z,2.00
2023-04-26T01:52:14.180Z,2.10
2023-04-26T01:54:41.489Z,1.97
2023-04-26T01:57:08.792Z,2.13
2023-04-26T01:59:36.511Z,1.77
2023-04-26T02:02:03.879Z,2.13
2023-04-26T02:04:31.299Z,2.17
2023-04-26T02:06:58.660Z,1.83
2023-04-26T02:09:26.045Z,2.43
2023-04-26T02:11:53.369Z,1.87
2023-04-26T02:14:20.783Z,1.80
2023-04-26T02:16:49.447Z,1.90
2023-04-26T02:19:16.881Z,2.10
2023-04-26T02:21:56.296Z,1.77
2023-04-26T02:24:24.501Z,2.03
2023-04-26T02:26:52.843Z,2.00
2023-04-26T02:29:29.393Z,2.20
2023-04-26T02:32:08.057Z,2.40
2023-04-26T02:34:36.022Z,2.13
2023-04-26T02:37:03.458Z,2.63
2023-04-26T02:39:31.643Z,1.67
2023-04-26T02:41:59.501Z,2.20
2023-04-26T02:44:30.601Z,2.10
2023-04-26T02:46:58.296Z,1.80
2023-04-26T02:49:26.008Z,2.30
2023-04-26T02:51:53.710Z,2.27
2023-04-26T02:54:21.390Z,2.07
2023-04-26T02:56:48.714Z,4.03
2023-04-26T02:59:16.377Z,2.70
2023-04-26T03:01:43.766Z,1.90
2023-04-26T03:04:11.448Z,2.57
2023-04-26T03:06:39.923Z,2.50
2023-04-26T03:09:07.297Z,2.33
2023-04-26T03:11:34.706Z,2.23
2023-04-26T03:14:02.770Z,2.30
2023-04-26T03:16:31.897Z,2.97
2023-04-26T03:18:59.290Z,2.30
2023-04-26T03:21:27.902Z,2.60
2023-04-26T03:23:55.310Z,2.47
2023-04-26T03:26:23.061Z,2.10
2023-04-26T03:28:51.484Z,2.50
2023-04-26T03:31:20.978Z,2.57
2023-04-26T03:33:48.501Z,3.70
2023-04-26T03:36:16.014Z,3.23
2023-04-26T03:38:43.535Z,2.80
2023-04-26T03:41:12.027Z,2.47
2023-04-26T03:43:39.367Z,2.63
2023-04-26T03:46:06.820Z,2.20
2023-04-26T03:48:34.163Z,2.33
2023-04-26T03:51:02.380Z,2.87
2023-04-26T03:53:29.795Z,2.87
2023-04-26T03:55:58.087Z,2.30
2023-04-26T03:58:26.418Z,2.53
2023-04-26T04:00:57.675Z,3.00
2023-04-26T04:03:25.231Z,2.63
2023-04-26T04:05:52.939Z,2.67
2023-04-26T04:08:20.208Z,2.33
2023-04-26T04:10:47.582Z,2.37
2023-04-26T04:13:14.859Z,1.97
2023-04-26T04:15:42.391Z,2.43
2023-04-26T04:18:09.840Z,2.80
2023-04-26T04:20:37.289Z,2.27
2023-04-26T04:23:07.717Z,2.30
2023-04-26T04:25:36.669Z,2.60
2023-04-26T04:28:08.614Z,2.97
2023-04-26T04:30:38.675Z,2.50
2023-04-26T04:33:06.597Z,2.23
2023-04-26T04:35:35.291Z,2.30
2023-04-26T04:38:05.515Z,2.50
2023-04-26T04:40:33.296Z,2.23
2023-04-26T04:43:03.378Z,2.30
2023-04-26T04:45:32.176Z,2.42
2023-04-26T04:48:00.756Z,4.87
2023-04-26T04:50:28.254Z,3.50
2023-04-26T04:52:56.422Z,3.17
2023-04-26T04:55:23.890Z,2.60
2023-04-26T04:57:52.313Z,2.27
2023-04-26T05:00:20.525Z,2.53
2023-04-26T05:02:56.888Z,3.00
2023-04-26T05:05:24.492Z,2.47
2023-04-26T05:07:51.840Z,2.63
2023-04-26T05:10:19.323Z,2.57
2023-04-26T05:12:49.100Z,1.70
2023-04-26T05:15:16.663Z,2.17
2023-04-26T05:17:44.811Z,1.73
2023-04-26T05:20:17.835Z,2.50
2023-04-26T05:22:45.473Z,2.10
2023-04-26T05:25:13.983Z,1.45
2023-04-26T05:27:42.309Z,1.38
2023-04-26T05:30:36.324Z,1.88
2023-04-26T05:33:19.563Z,2.40
2023-04-26T05:35:49.657Z,2.75
2023-04-26T05:38:17.035Z,2.22
2023-04-26T05:40:44.790Z,2.00
2023-04-26T05:43:12.096Z,2.40
2023-04-26T05:45:39.958Z,2.45
2023-04-26T05:48:07.457Z,2.47
2023-04-26T05:50:34.977Z,2.35
2023-04-26T05:53:02.433Z,1.77
2023-04-26T05:55:30.132Z,1.95
2023-04-26T05:57:58.453Z,2.92
2023-04-26T06:00:26.296Z,2.25
2023-04-26T06:02:54.300Z,2.63
2023-04-26T06:05:24.888Z,1.90
2023-04-26T06:07:53.209Z,1.70
2023-04-26T06:10:20.952Z,2.28
2023-04-26T06:12:48.529Z,1.98
2023-04-26T06:15:17.118Z,1.85
2023-04-26T06:17:44.874Z,1.92
2023-04-26T06:20:12.739Z,2.40
2023-04-26T06:22:40.101Z,1.75
2023-04-26T06:25:08.996Z,2.00
2023-04-26T06:27:39.231Z,1.90
2023-04-26T06:30:10.499Z,2.42
2023-04-26T06:32:42.298Z,2.13
2023-04-26T06:35:10.021Z,1.88
2023-04-26T06:37:38.600Z,1.70
2023-04-26T06:40:08.307Z,2.05
2023-04-26T06:42:36.768Z,2.22
2023-04-26T06:45:32.985Z,2.00
2023-04-26T06:48:03.018Z,1.63
2023-04-26T06:50:30.513Z,1.50
2023-04-26T06:52:58.168Z,1.83
2023-04-26T06:55:25.598Z,1.75
2023-04-26T06:57:52.938Z,2.28
2023-04-26T07:00:21.335Z,1.73
2023-04-26T07:02:48.860Z,2.00
2023-04-26T07:05:16.502Z,1.60
2023-04-26T07:07:51.889Z,1.50
2023-04-26T07:10:22.152Z,1.38
2023-04-26T07:12:49.616Z,1.50
2023-04-26T07:15:17.006Z,1.65
2023-04-26T07:17:44.618Z,1.40
2023-04-26T07:20:19.912Z,1.70
2023-04-26T07:22:47.765Z,1.27
2023-04-26T07:25:15.489Z,1.70
2023-04-26T07:27:48.139Z,1.20
2023-04-26T07:30:16.275Z,1.25
2023-04-26T07:32:43.688Z,1.30
2023-04-26T07:35:16.467Z,1.10
2023-04-26T07:37:52.569Z,1.27
2023-04-26T07:40:22.730Z,1.08
2023-04-26T07:42:55.910Z,1.70
2023-04-26T07:45:28.735Z,1.10
2023-04-26T07:47:56.694Z,1.73
2023-04-26T07:50:24.931Z,1.00
2023-04-26T07:52:52.493Z,1.10
2023-04-26T07:55:19.998Z,1.20
2023-04-26T07:57:47.693Z,1.25
2023-04-26T08:00:17.133Z,0.95
2023-04-26T08:02:46.800Z,1.67
2023-04-26T08:05:15.323Z,1.40
2023-04-26T08:07:43.617Z,1.40
2023-04-26T08:10:11.490Z,1.45
2023-04-26T08:12:43.467Z,1.63
2023-04-26T08:15:14.589Z,1.40
2023-04-26T08:17:45.681Z,1.50
2023-04-26T08:20:14.350Z,2.47
2023-04-26T08:22:44.133Z,4.40
2023-04-26T08:25:11.519Z,2.38
2023-04-26T08:27:39.908Z,2.75
2023-04-26T08:30:07.956Z,1.60
2023-04-26T08:32:35.555Z,1.35
2023-04-26T08:35:05.529Z,2.40
2023-04-26T08:37:33.437Z,2.17
2023-04-26T08:40:04.600Z,1.48
2023-04-26T08:42:32.981Z,1.58
2023-04-26T08:45:04.976Z,1.52
2023-04-26T08:47:49.938Z,1.10
2023-04-26T08:50:21.120Z,2.08
2023-04-26T08:52:52.368Z,2.47
2023-04-26T08:55:23.338Z,1.02
2023-04-26T08:57:51.119Z,1.98
2023-04-26T09:00:23.174Z,1.25
2023-04-26T09:05:27.251Z,1.30
2023-04-26T09:08:02.556Z,1.70
2023-04-26T09:10:32.913Z,1.42
2023-04-26T09:13:00.483Z,1.35
2023-04-26T09:15:30.375Z,1.25
2023-04-26T09:18:18.173Z,1.52
2023-04-26T09:21:08.337Z,2.22
2023-04-26T09:23:36.110Z,1.95
2023-04-26T09:26:21.816Z,1.77
2023-04-26T09:28:50.847Z,1.13
2023-04-26T09:31:39.218Z,1.13
2023-04-26T09:34:07.128Z,1.00
2023-04-26T09:36:47.828Z,1.63
2023-04-26T09:39:40.498Z,1.90
2023-04-26T09:42:09.714Z,1.35
2023-04-26T09:44:40.604Z,1.33
2023-04-26T09:47:18.620Z,1.08
2023-04-26T09:49:55.286Z,1.10
2023-04-26T09:52:22.940Z,1.00
2023-04-26T09:54:53.978Z,1.10
2023-04-26T09:57:23.738Z,1.25
2023-04-26T09:59:56.360Z,1.30
2023-04-26T10:02:26.834Z,1.25
2023-04-26T10:04:58.351Z,2.17
2023-04-26T10:07:26.915Z,2.03
2023-04-26T10:09:55.802Z,1.45
2023-04-26T10:12:23.852Z,2.00
2023-04-26T10:14:51.605Z,1.95
2023-04-26T10:17:22.019Z,2.17
2023-04-26T10:19:55.196Z,1.58
2023-04-26T10:22:26.059Z,1.50
2023-04-26T10:24:57.106Z,1.63
2023-04-26T10:27:45.502Z,1.58
2023-04-26T10:30:23.282Z,1.15
2023-04-26T10:33:17.538Z,1.27
2023-04-26T10:36:10.108Z,0.95
2023-04-26T10:38:59.374Z,1.38
2023-04-26T10:41:32.218Z,1.83
2023-04-26T10:44:20.875Z,1.05
2023-04-26T10:46:52.950Z,1.52
2023-04-26T10:49:25.657Z,1.10
2023-04-26T10:52:13.948Z,1.20
2023-04-26T10:55:08.589Z,1.27
2023-04-26T10:57:51.330Z,1.58
2023-04-26T11:00:28.541Z,1.52
2023-04-26T11:03:02.748Z,1.45
2023-04-26T11:05:53.487Z,1.27
2023-04-26T11:08:25.676Z,1.98
2023-04-26T11:11:11.870Z,1.80
2023-04-26T11:13:44.151Z,1.40
2023-04-26T11:16:16.767Z,1.50
2023-04-26T11:18:50.237Z,1.63
2023-04-26T11:21:19.686Z,1.55
2023-04-26T11:23:59.706Z,1.50
2023-04-26T11:26:35.304Z,1.23
2023-04-26T11:29:03.605Z,1.10
2023-04-26T11:31:31.155Z,1.02
2023-04-26T11:34:05.295Z,1.15
2023-04-26T11:36:33.160Z,1.10
2023-04-26T11:39:02.749Z,1.15
2023-04-26T11:41:30.568Z,1.02
2023-04-26T11:44:00.197Z,1.27
2023-04-26T11:46:28.128Z,1.60
2023-04-26T11:48:58.437Z,1.20
2023-04-26T11:51:26.919Z,1.27
2023-04-26T11:53:54.558Z,1.73
2023-04-26T11:56:23.238Z,1.48
2023-04-26T11:58:52.562Z,1.02
2023-04-26T12:01:22.272Z,1.52
2023-04-26T12:03:52.014Z,1.73
2023-04-26T12:06:20.529Z,0.95
2023-04-26T12:08:52.386Z,1.52
2023-04-26T12:13:47.858Z,1.50
2023-04-26T12:16:25.430Z,1.27
2023-04-26T12:18:55.191Z,1.40
2023-04-26T12:21:24.409Z,1.05
2023-04-26T12:23:52.541Z,1.40
2023-04-26T12:26:20.629Z,1.63
2023-04-26T12:28:48.333Z,1.33
2023-04-26T12:31:15.863Z,1.33
2023-04-26T12:33:43.401Z,1.42
2023-04-26T12:36:12.353Z,1.20
2023-04-26T12:38:40.846Z,1.35
2023-04-26T12:41:08.341Z,1.95
2023-04-26T12:43:36.839Z,1.50
2023-04-26T12:46:05.098Z,1.15
2023-04-26T12:48:32.843Z,1.55
2023-04-26T12:51:00.476Z,1.35
2023-04-26T12:53:28.047Z,1.83
2023-04-26T12:55:55.556Z,1.45
2023-04-26T12:58:23.248Z,1.48
2023-04-26T13:00:51.363Z,1.50
2023-04-26T13:03:19.047Z,1.80
2023-04-26T13:05:46.901Z,1.42
2023-04-26T13:08:14.843Z,1.67
2023-04-26T13:10:42.730Z,1.95
2023-04-26T13:13:10.714Z,1.35
2023-04-26T13:15:38.325Z,1.63
2023-04-26T13:18:06.255Z,2.05
2023-04-26T13:20:33.982Z,1.73
2023-04-26T13:23:01.423Z,1.48
2023-04-26T13:25:28.887Z,1.75
2023-04-26T13:27:56.364Z,1.20
2023-04-26T13:30:23.770Z,1.42
2023-04-26T13:32:51.603Z,1.33
2023-04-26T13:35:19.222Z,1.70
2023-04-26T13:37:47.057Z,1.92
2023-04-26T13:40:14.593Z,1.23
2023-04-26T13:42:42.744Z,1.80
2023-04-26T13:45:11.228Z,1.10
2023-04-26T13:47:38.746Z,1.60
2023-04-26T13:50:06.991Z,1.45
2023-04-26T13:52:37.356Z,1.38
2023-04-26T13:55:05.223Z,1.40
2023-04-26T13:57:32.711Z,1.35
2023-04-26T14:00:00.169Z,1.45
2023-04-26T14:02:28.309Z,1.30
2023-04-26T14:04:56.123Z,2.08
2023-04-26T14:07:26.914Z,1.95
2023-04-26T14:09:54.449Z,1.23
2023-04-26T14:12:21.843Z,1.00
2023-04-26T14:14:49.490Z,1.30
2023-04-26T14:17:17.008Z,1.35
2023-04-26T14:19:44.521Z,1.38
2023-04-26T14:22:13.105Z,1.40
2023-04-26T14:24:40.857Z,1.92
2023-04-26T14:27:08.356Z,1.30
2023-04-26T14:29:36.013Z,2.22
2023-04-26T14:32:03.601Z,1.58
2023-04-26T14:34:31.376Z,1.42
2023-04-26T14:37:01.737Z,1.52
2023-04-26T14:39:29.478Z,1.85
2023-04-26T14:41:57.909Z,1.48
2023-04-26T14:44:25.940Z,1.70
2023-04-26T14:46:53.720Z,1.65
2023-04-26T14:49:21.349Z,1.27
2023-04-26T14:51:49.812Z,2.65
2023-04-26T14:54:18.904Z,3.60
2023-04-26T14:56:46.465Z,1.60
2023-04-26T14:59:14.036Z,1.67
2023-04-26T15:01:41.654Z,1.70
2023-04-26T15:04:09.388Z,1.50
2023-04-26T15:06:37.231Z,1.27
2023-04-26T15:09:08.783Z,1.60
2023-04-26T15:11:36.637Z,1.23
2023-04-26T15:14:04.510Z,1.50
2023-04-26T15:16:32.156Z,1.63
2023-04-26T15:18:59.803Z,1.48
2023-04-26T15:21:28.931Z,1.83
2023-04-26T15:23:56.573Z,1.60
2023-04-26T15:26:24.144Z,1.90
2023-04-26T15:28:51.830Z,1.70
2023-04-26T15:31:20.763Z,1.50
2023-04-26T15:33:48.435Z,1.33
2023-04-26T15:36:20.368Z,1.58
2023-04-26T15:38:48.832Z,1.40
2023-04-26T15:41:16.493Z,1.88
2023-04-26T15:43:44.117Z,1.10
2023-04-26T15:46:15.042Z,1.10
2023-04-26T15:48:42.573Z,1.73
2023-04-26T15:51:10.135Z,1.85
2023-04-26T15:53:43.184Z,1.45
2023-04-26T15:56:18.131Z,1.40
2023-04-26T15:58:46.887Z,1.60
2023-04-26T16:01:14.964Z,1.58
2023-04-26T16:03:46.388Z,1.27
2023-04-26T16:06:15.065Z,1.83
2023-04-26T16:08:43.150Z,1.30
2023-04-26T16:11:10.702Z,0.90
2023-04-26T16:13:38.344Z,1.55
2023-04-26T16:16:10.901Z,1.38
2023-04-26T16:18:43.885Z,1.33
2023-04-26T16:21:13.019Z,1.45
2023-04-26T16:23:44.340Z,1.30
2023-04-26T16:26:12.139Z,1.17
2023-04-26T16:28:39.705Z,1.20
2023-04-26T16:31:07.168Z,1.40
2023-04-26T16:33:34.736Z,1.08
2023-04-26T16:36:02.194Z,1.33
2023-04-26T16:38:29.651Z,1.08
2023-04-26T16:40:59.022Z,1.50
2023-04-26T16:43:27.341Z,1.40
2023-04-26T16:45:59.262Z,1.30
2023-04-26T16:48:27.340Z,2.20
2023-04-26T16:50:54.857Z,1.38
2023-04-26T16:53:22.924Z,1.38
2023-04-26T16:55:51.292Z,3.15
2023-04-26T16:58:18.811Z,1.27
2023-04-26T17:00:47.095Z,2.10
2023-04-26T17:03:15.360Z,1.92
2023-04-26T17:05:47.128Z,1.20
2023-04-26T17:08:16.035Z,1.08
2023-04-26T17:10:47.059Z,1.43
2023-04-26T17:13:15.271Z,1.30
2023-04-26T17:15:43.352Z,1.08
2023-04-26T17:18:11.128Z,1.60
2023-04-26T17:20:38.744Z,1.15
2023-04-26T17:23:07.923Z,1.17
2023-04-26T17:25:35.870Z,1.45
2023-04-26T17:28:03.660Z,1.05
2023-04-26T17:30:31.138Z,1.58
2023-04-26T17:32:58.601Z,0.98
2023-04-26T17:35:26.318Z,1.40
2023-04-26T17:37:53.737Z,2.65
2023-04-26T17:40:21.357Z,1.70
2023-04-26T17:42:48.790Z,1.63
2023-04-26T17:45:16.477Z,1.85
2023-04-26T17:47:45.500Z,1.60
2023-04-26T17:50:13.466Z,1.52
2023-04-26T17:52:41.033Z,1.52
2023-04-26T17:55:10.166Z,1.83
2023-04-26T17:57:37.821Z,1.50
2023-04-26T18:00:12.827Z,1.60
2023-04-26T18:02:43.289Z,1.73
2023-04-26T18:05:11.351Z,1.63
2023-04-26T18:07:38.829Z,1.50
2023-04-26T18:10:07.326Z,1.55
2023-04-26T18:12:36.269Z,1.88
2023-04-26T18:15:04.233Z,1.40
2023-04-26T18:17:31.901Z,1.52
2023-04-26T18:19:59.461Z,2.33
2023-04-26T18:22:26.942Z,1.42
2023-04-26T18:24:54.455Z,1.45
2023-04-26T18:27:22.125Z,1.73
2023-04-26T18:29:49.668Z,1.60
2023-04-26T18:32:17.176Z,1.77
2023-04-26T18:34:45.022Z,1.63
2023-04-26T18:37:12.582Z,1.83
2023-04-26T18:39:40.057Z,1.70
2023-04-26T18:42:07.935Z,2.35
2023-04-26T18:44:35.395Z,1.73
2023-04-26T18:47:02.730Z,1.40
2023-04-26T18:49:30.759Z,1.83
2023-04-26T18:51:58.331Z,1.27
2023-04-26T18:54:26.412Z,1.27
2023-04-26T18:56:54.366Z,1.70
2023-04-26T18:59:21.953Z,2.65
2023-04-26T19:01:49.563Z,2.20
2023-04-26T19:04:17.263Z,2.05
2023-04-26T19:06:44.933Z,4.30
2023-04-26T19:09:13.054Z,5.85
2023-04-26T19:11:40.620Z,3.60
2023-04-26T19:14:08.036Z,3.42
2023-04-26T19:16:35.711Z,8.15
2023-04-26T19:19:03.388Z,7.18
2023-04-26T19:21:32.143Z,2.85
2023-04-26T19:23:59.651Z,2.28
2023-04-26T19:26:27.175Z,2.20
2023-04-26T19:28:55.900Z,1.88
2023-04-26T19:31:23.905Z,1.92
2023-04-26T19:33:51.593Z,1.90
2023-04-26T19:36:19.151Z,2.13
2023-04-26T19:38:48.569Z,2.08
2023-04-26T19:41:16.104Z,1.98
2023-04-26T19:43:43.548Z,2.38
2023-04-26T19:46:12.735Z,2.92
2023-04-26T19:48:41.021Z,3.83
2023-04-26T19:51:08.659Z,3.40
2023-04-26T19:53:36.260Z,3.63
2023-04-26T19:56:03.734Z,4.95
2023-04-26T19:58:32.477Z,4.22
2023-04-26T20:00:59.999Z,4.20
2023-04-26T20:03:27.770Z,4.15
2023-04-26T20:05:55.688Z,4.32
2023-04-26T20:08:23.101Z,3.30
2023-04-26T20:10:50.851Z,3.95
2023-04-26T20:13:18.741Z,3.35
2023-04-26T20:15:46.307Z,4.27
2023-04-26T20:18:13.688Z,3.87
2023-04-26T20:20:41.239Z,3.07
2023-04-26T20:23:08.648Z,4.33
2023-04-26T20:25:36.349Z,4.23
2023-04-26T20:28:04.333Z,3.93
2023-04-26T20:30:33.930Z,4.40
2023-04-26T20:33:01.564Z,4.23
2023-04-26T20:35:29.150Z,4.20
2023-04-26T20:37:56.670Z,4.27
2023-04-26T20:40:24.056Z,4.63
2023-04-26T20:42:51.724Z,4.90
2023-04-26T20:45:19.411Z,4.50
2023-04-26T20:47:47.334Z,5.23
2023-04-26T20:50:14.887Z,4.83
2023-04-26T20:52:42.429Z,4.80
2023-04-26T20:55:10.267Z,4.97
2023-04-26T20:57:38.676Z,5.10
2023-04-26T21:00:07.906Z,5.23
2023-04-26T21:02:35.621Z,5.30
2023-04-26T21:05:04.743Z,5.03
2023-04-26T21:07:33.250Z,4.73
2023-04-26T21:10:00.832Z,5.30
2023-04-26T21:12:28.494Z,5.33
2023-04-26T21:14:55.905Z,4.67
2023-04-26T21:17:23.594Z,4.13
2023-04-26T21:19:51.863Z,4.60
2023-04-26T21:22:19.347Z,4.80
2023-04-26T21:24:46.792Z,4.80
2023-04-26T21:27:14.322Z,6.00
2023-04-26T21:29:41.771Z,5.83
2023-04-26T21:32:09.209Z,5.67
2023-04-26T21:34:37.409Z,5.13
2023-04-26T21:37:04.937Z,5.37
2023-04-26T21:39:32.451Z,5.63
2023-04-26T21:41:59.958Z,5.50
2023-04-26T21:44:27.477Z,5.07
2023-04-26T21:46:55.082Z,5.37
2023-04-26T21:49:22.615Z,5.90
2023-04-26T21:51:50.099Z,6.03
2023-04-26T21:54:17.528Z,6.83
2023-04-26T21:56:45.035Z,6.30
2023-04-26T21:59:14.230Z,6.40
2023-04-26T22:01:41.752Z,6.20
2023-04-26T22:04:09.353Z,5.70
2023-04-26T22:06:36.909Z,5.20
2023-04-26T22:09:05.019Z,5.70
2023-04-26T22:11:32.433Z,5.20
2023-04-26T22:14:00.004Z,5.30
2023-04-26T22:16:27.532Z,5.83
2023-04-26T22:18:55.052Z,4.47
2023-04-26T22:21:22.546Z,4.97
2023-04-26T22:23:49.991Z,6.03
2023-04-26T22:26:17.452Z,5.87
2023-04-26T22:28:46.307Z,6.03
2023-04-26T22:31:13.649Z,6.03
2023-04-26T22:33:41.210Z,6.03
2023-04-26T22:36:09.325Z,5.73
2023-04-26T22:38:36.732Z,6.33
2023-04-26T22:41:07.143Z,6.07
2023-04-26T22:43:35.395Z,5.70
2023-04-26T22:46:03.199Z,6.10
2023-04-26T22:48:30.945Z,6.17
2023-04-26T22:51:00.050Z,5.40
2023-04-26T22:53:27.499Z,5.77
2023-04-26T22:55:54.905Z,5.80
2023-04-26T22:58:22.432Z,6.20
2023-04-26T23:00:49.875Z,6.20
2023-04-26T23:03:17.503Z,6.27
2023-04-26T23:05:45.715Z,5.67
2023-04-26T23:08:13.375Z,5.87
2023-04-26T23:10:40.818Z,5.67
2023-04-26T23:13:09.171Z,5.57
2023-04-26T23:15:37.087Z,5.50
2023-04-26T23:18:05.403Z,5.40
2023-04-26T23:20:32.942Z,5.87
2023-04-26T23:23:00.411Z,5.83
2023-04-26T23:25:27.915Z,7.27
2023-04-26T23:27:55.564Z,6.00
2023-04-26T23:30:23.108Z,6.17
2023-04-26T23:32:50.793Z,6.90
2023-04-26T23:35:18.225Z,5.70
2023-04-26T23:37:45.838Z,6.33
2023-04-26T23:40:13.775Z,5.83
2023-04-26T23:42:41.517Z,6.23
2023-04-26T23:45:10.032Z,7.73
2023-04-26T23:47:37.608Z,7.50
2023-04-26T23:50:09.015Z,8.17
2023-04-26T23:52:36.549Z,7.43
2023-04-26T23:55:04.387Z,7.97
2023-04-26T23:57:32.384Z,7.67
